sensor_id;sensor_type;location;lat;lon;timestamp;pressure;altitude;pressure_sealevel;temperature;humidity
16793;BME280;8513;42.662;23.350;2023-04-02T00:08:11;94028.25;;;10.18;46.46
16793;BME280;8513;42.662;23.350;2023-04-02T00:10:57;94031.41;;;10.13;45.92
16793;BME280;8513;42.662;23.350;2023-04-02T00:13:32;94025.66;;;9.87;46.26
16793;BME280;8513;42.662;23.350;2023-04-02T00:15:59;94027.00;;;9.75;46.59
16793;BME280;8513;42.662;23.350;2023-04-02T00:18:26;94030.91;;;9.87;46.11
16793;BME280;8513;42.662;23.350;2023-04-02T00:21:22;94040.75;;;9.85;46.23
16793;BME280;8513;42.662;23.350;2023-04-02T00:23:49;94035.88;;;9.74;46.21
16793;BME280;8513;42.662;23.350;2023-04-02T00:26:36;94029.81;;;9.65;46.63
16793;BME280;8513;42.662;23.350;2023-04-02T00:29:04;94010.94;;;9.69;46.47
16793;BME280;8513;42.662;23.350;2023-04-02T00:31:31;94016.88;;;9.63;46.32
16793;BME280;8513;42.662;23.350;2023-04-02T00:33:59;94006.34;;;9.71;46.33
16793;BME280;8513;42.662;23.350;2023-04-02T00:36:28;94010.81;;;9.94;45.89
16793;BME280;8513;42.662;23.350;2023-04-02T00:38:56;94022.19;;;10.18;45.50
16793;BME280;8513;42.662;23.350;2023-04-02T00:41:25;94008.06;;;10.19;44.89
16793;BME280;8513;42.662;23.350;2023-04-02T00:43:55;94009.75;;;10.11;44.97
16793;BME280;8513;42.662;23.350;2023-04-02T00:46:27;94002.06;;;10.02;45.23
16793;BME280;8513;42.662;23.350;2023-04-02T00:49:36;94008.38;;;9.92;45.33
16793;BME280;8513;42.662;23.350;2023-04-02T00:52:14;94007.38;;;9.93;45.17
16793;BME280;8513;42.662;23.350;2023-04-02T00:54:49;94009.97;;;10.02;44.84
16793;BME280;8513;42.662;23.350;2023-04-02T00:57:20;94003.38;;;10.06;44.97
16793;BME280;8513;42.662;23.350;2023-04-02T01:02:33;94010.91;;;10.09;44.71
16793;BME280;8513;42.662;23.350;2023-04-02T01:08:03;94006.25;;;9.88;45.13
16793;BME280;8513;42.662;23.350;2023-04-02T01:13:16;94001.47;;;9.91;45.32
16793;BME280;8513;42.662;23.350;2023-04-02T01:18:36;94027.38;;;10.26;44.66
16793;BME280;8513;42.662;23.350;2023-04-02T01:21:15;94019.25;;;10.12;44.85
16793;BME280;8513;42.662;23.350;2023-04-02T01:24:00;94026.16;;;10.13;45.00
16793;BME280;8513;42.662;23.350;2023-04-02T01:29:42;94034.38;;;10.10;48.06
16793;BME280;8513;42.662;23.350;2023-04-02T01:32:13;94028.47;;;10.08;48.68
16793;BME280;8513;42.662;23.350;2023-04-02T01:34:40;94041.47;;;10.02;49.08
16793;BME280;8513;42.662;23.350;2023-04-02T01:42:55;94027.69;;;9.68;51.01
16793;BME280;8513;42.662;23.350;2023-04-02T01:45:24;94032.50;;;9.48;51.37
16793;BME280;8513;42.662;23.350;2023-04-02T01:47:50;94029.88;;;9.48;51.54
16793;BME280;8513;42.662;23.350;2023-04-02T01:52:46;94025.16;;;9.44;51.71
16793;BME280;8513;42.662;23.350;2023-04-02T01:55:16;94019.56;;;9.47;51.74
16793;BME280;8513;42.662;23.350;2023-04-02T01:57:44;94020.22;;;9.41;51.97
16793;BME280;8513;42.662;23.350;2023-04-02T02:00:15;94025.31;;;9.42;51.73
16793;BME280;8513;42.662;23.350;2023-04-02T02:02:42;94016.28;;;9.45;51.20
16793;BME280;8513;42.662;23.350;2023-04-02T02:05:16;94020.41;;;9.39;51.12
16793;BME280;8513;42.662;23.350;2023-04-02T02:07:42;94020.06;;;9.42;51.05
16793;BME280;8513;42.662;23.350;2023-04-02T02:10:27;94021.38;;;9.46;51.32
16793;BME280;8513;42.662;23.350;2023-04-02T02:12:53;94023.69;;;9.41;51.66
16793;BME280;8513;42.662;23.350;2023-04-02T02:15:21;94024.53;;;9.34;51.03
16793;BME280;8513;42.662;23.350;2023-04-02T02:17:48;94016.53;;;9.19;51.31
16793;BME280;8513;42.662;23.350;2023-04-02T02:20:14;94020.25;;;9.33;50.92
16793;BME280;8513;42.662;23.350;2023-04-02T02:22:45;94022.25;;;9.31;51.25
16793;BME280;8513;42.662;23.350;2023-04-02T02:25:18;94017.53;;;9.18;51.35
16793;BME280;8513;42.662;23.350;2023-04-02T02:30:23;94027.81;;;9.19;50.73
16793;BME280;8513;42.662;23.350;2023-04-02T02:35:35;94024.03;;;9.30;51.51
16793;BME280;8513;42.662;23.350;2023-04-02T02:46:42;94026.88;;;9.12;52.84
16793;BME280;8513;42.662;23.350;2023-04-02T02:49:15;94021.81;;;9.02;53.27
16793;BME280;8513;42.662;23.350;2023-04-02T02:51:52;94027.72;;;9.04;53.19
16793;BME280;8513;42.662;23.350;2023-04-02T02:54:21;94028.41;;;8.90;53.83
16793;BME280;8513;42.662;23.350;2023-04-02T02:56:53;94028.06;;;8.93;53.81
16793;BME280;8513;42.662;23.350;2023-04-02T02:59:21;94028.69;;;8.95;53.82
16793;BME280;8513;42.662;23.350;2023-04-02T03:01:47;94020.00;;;8.95;54.02
16793;BME280;8513;42.662;23.350;2023-04-02T03:04:19;94016.75;;;8.93;53.85
16793;BME280;8513;42.662;23.350;2023-04-02T03:06:49;94013.47;;;8.91;54.14
16793;BME280;8513;42.662;23.350;2023-04-02T03:09:58;94031.81;;;8.99;53.94
16793;BME280;8513;42.662;23.350;2023-04-02T03:12:40;94028.88;;;8.86;54.66
16793;BME280;8513;42.662;23.350;2023-04-02T03:15:48;94035.75;;;8.95;54.56
16793;BME280;8513;42.662;23.350;2023-04-02T03:18:15;94040.19;;;8.78;54.92
16793;BME280;8513;42.662;23.350;2023-04-02T03:20:54;94040.03;;;8.79;54.92
16793;BME280;8513;42.662;23.350;2023-04-02T03:23:35;94037.41;;;8.79;54.90
16793;BME280;8513;42.662;23.350;2023-04-02T03:26:11;94037.09;;;8.74;55.09
16793;BME280;8513;42.662;23.350;2023-04-02T03:28:42;94041.34;;;8.75;55.16
16793;BME280;8513;42.662;23.350;2023-04-02T03:31:24;94051.34;;;8.64;55.92
16793;BME280;8513;42.662;23.350;2023-04-02T03:34:32;94040.00;;;8.55;55.84
16793;BME280;8513;42.662;23.350;2023-04-02T03:36:58;94049.53;;;8.56;55.81
16793;BME280;8513;42.662;23.350;2023-04-02T03:42:24;94054.75;;;8.48;56.44
16793;BME280;8513;42.662;23.350;2023-04-02T03:45:00;94043.94;;;8.43;56.35
16793;BME280;8513;42.662;23.350;2023-04-02T03:47:34;94060.97;;;8.47;56.68
16793;BME280;8513;42.662;23.350;2023-04-02T03:50:06;94041.66;;;8.39;56.53
16793;BME280;8513;42.662;23.350;2023-04-02T03:52:34;94044.88;;;8.33;56.98
16793;BME280;8513;42.662;23.350;2023-04-02T03:55:01;94052.25;;;8.30;57.14
16793;BME280;8513;42.662;23.350;2023-04-02T04:00:37;94048.00;;;8.21;57.19
16793;BME280;8513;42.662;23.350;2023-04-02T04:03:10;94059.13;;;8.31;57.12
16793;BME280;8513;42.662;23.350;2023-04-02T04:05:44;94056.00;;;8.27;56.97
16793;BME280;8513;42.662;23.350;2023-04-02T04:08:18;94057.16;;;8.33;56.80
16793;BME280;8513;42.662;23.350;2023-04-02T04:10:50;94057.28;;;8.23;57.28
16793;BME280;8513;42.662;23.350;2023-04-02T04:13:21;94054.53;;;8.25;57.21
16793;BME280;8513;42.662;23.350;2023-04-02T04:15:55;94068.09;;;8.20;57.50
16793;BME280;8513;42.662;23.350;2023-04-02T04:21:46;94065.81;;;8.25;57.56
16793;BME280;8513;42.662;23.350;2023-04-02T04:24:32;94068.94;;;8.21;57.55
16793;BME280;8513;42.662;23.350;2023-04-02T04:27:17;94073.50;;;8.10;57.66
16793;BME280;8513;42.662;23.350;2023-04-02T04:31:00;94084.28;;;8.07;57.82
16793;BME280;8513;42.662;23.350;2023-04-02T04:33:23;94077.25;;;8.08;57.77
16793;BME280;8513;42.662;23.350;2023-04-02T04:36:01;94079.19;;;8.06;57.63
16793;BME280;8513;42.662;23.350;2023-04-02T04:38:48;94088.06;;;8.13;57.62
16793;BME280;8513;42.662;23.350;2023-04-02T04:41:23;94090.00;;;8.11;57.64
16793;BME280;8513;42.662;23.350;2023-04-02T04:43:54;94089.88;;;8.21;56.77
16793;BME280;8513;42.662;23.350;2023-04-02T04:46:40;94096.91;;;8.20;56.92
16793;BME280;8513;42.662;23.350;2023-04-02T04:49:26;94088.44;;;8.26;56.61
16793;BME280;8513;42.662;23.350;2023-04-02T04:52:04;94090.06;;;8.27;56.52
16793;BME280;8513;42.662;23.350;2023-04-02T04:54:36;94094.81;;;8.24;56.67
16793;BME280;8513;42.662;23.350;2023-04-02T04:57:05;94099.69;;;8.18;57.24
16793;BME280;8513;42.662;23.350;2023-04-02T04:59:44;94101.03;;;8.31;57.03
16793;BME280;8513;42.662;23.350;2023-04-02T05:02:23;94090.75;;;8.37;56.49
16793;BME280;8513;42.662;23.350;2023-04-02T05:04:51;94091.56;;;8.38;56.57
16793;BME280;8513;42.662;23.350;2023-04-02T05:07:21;94085.97;;;8.33;56.82
16793;BME280;8513;42.662;23.350;2023-04-02T05:17:49;94096.31;;;8.34;56.73
16793;BME280;8513;42.662;23.350;2023-04-02T05:20:47;94101.06;;;8.47;56.64
16793;BME280;8513;42.662;23.350;2023-04-02T05:23:22;94110.59;;;8.56;56.14
16793;BME280;8513;42.662;23.350;2023-04-02T05:28:56;94107.34;;;8.79;55.49
16793;BME280;8513;42.662;23.350;2023-04-02T05:31:29;94111.09;;;8.84;55.45
16793;BME280;8513;42.662;23.350;2023-04-02T05:34:01;94107.19;;;8.97;55.14
16793;BME280;8513;42.662;23.350;2023-04-02T05:36:28;94113.09;;;8.99;55.21
16793;BME280;8513;42.662;23.350;2023-04-02T05:38:56;94117.00;;;9.11;54.55
16793;BME280;8513;42.662;23.350;2023-04-02T05:41:33;94125.06;;;9.18;54.74
16793;BME280;8513;42.662;23.350;2023-04-02T05:46:35;94116.69;;;9.31;53.62
16793;BME280;8513;42.662;23.350;2023-04-02T05:49:05;94115.56;;;9.25;53.70
16793;BME280;8513;42.662;23.350;2023-04-02T05:51:41;94115.88;;;9.38;53.34
16793;BME280;8513;42.662;23.350;2023-04-02T05:54:33;94119.63;;;8.95;55.10
16793;BME280;8513;42.662;23.350;2023-04-02T05:57:14;94127.16;;;9.06;53.90
16793;BME280;8513;42.662;23.350;2023-04-02T06:00:06;94117.66;;;9.30;53.30
16793;BME280;8513;42.662;23.350;2023-04-02T06:02:35;94125.50;;;9.38;52.84
16793;BME280;8513;42.662;23.350;2023-04-02T06:05:10;94128.75;;;9.56;52.72
16793;BME280;8513;42.662;23.350;2023-04-02T06:07:56;94130.72;;;9.70;52.12
16793;BME280;8513;42.662;23.350;2023-04-02T06:10:27;94124.31;;;9.73;52.31
16793;BME280;8513;42.662;23.350;2023-04-02T06:12:56;94131.97;;;9.83;51.73
16793;BME280;8513;42.662;23.350;2023-04-02T06:15:28;94133.75;;;9.99;51.19
16793;BME280;8513;42.662;23.350;2023-04-02T06:20:44;94129.81;;;9.94;51.50
16793;BME280;8513;42.662;23.350;2023-04-02T06:26:04;94123.34;;;10.13;51.05
16793;BME280;8513;42.662;23.350;2023-04-02T06:28:51;94128.72;;;10.20;50.97
16793;BME280;8513;42.662;23.350;2023-04-02T06:33:51;94128.16;;;10.41;50.07
16793;BME280;8513;42.662;23.350;2023-04-02T06:36:19;94128.69;;;10.36;50.24
16793;BME280;8513;42.662;23.350;2023-04-02T06:38:46;94134.25;;;10.42;50.10
16793;BME280;8513;42.662;23.350;2023-04-02T06:41:21;94123.06;;;10.40;50.18
16793;BME280;8513;42.662;23.350;2023-04-02T06:43:54;94132.38;;;10.50;50.01
16793;BME280;8513;42.662;23.350;2023-04-02T06:46:35;94129.88;;;10.57;49.84
16793;BME280;8513;42.662;23.350;2023-04-02T06:54:48;94135.25;;;10.64;49.39
16793;BME280;8513;42.662;23.350;2023-04-02T06:57:13;94142.13;;;10.73;49.22
16793;BME280;8513;42.662;23.350;2023-04-02T06:59:39;94133.16;;;10.82;49.17
16793;BME280;8513;42.662;23.350;2023-04-02T07:02:18;94139.03;;;10.92;48.82
16793;BME280;8513;42.662;23.350;2023-04-02T07:04:46;94139.91;;;10.85;48.86
16793;BME280;8513;42.662;23.350;2023-04-02T07:07:12;94139.84;;;10.93;49.00
16793;BME280;8513;42.662;23.350;2023-04-02T07:09:38;94158.38;;;10.99;49.01
16793;BME280;8513;42.662;23.350;2023-04-02T07:12:10;94153.56;;;11.03;48.66
16793;BME280;8513;42.662;23.350;2023-04-02T07:14:36;94150.13;;;11.02;48.92
16793;BME280;8513;42.662;23.350;2023-04-02T07:17:01;94150.56;;;10.91;48.71
16793;BME280;8513;42.662;23.350;2023-04-02T07:19:27;94153.94;;;11.00;48.75
16793;BME280;8513;42.662;23.350;2023-04-02T07:21:52;94151.25;;;11.08;48.45
16793;BME280;8513;42.662;23.350;2023-04-02T07:24:17;94158.09;;;11.17;48.64
16793;BME280;8513;42.662;23.350;2023-04-02T07:26:43;94157.84;;;11.27;48.44
16793;BME280;8513;42.662;23.350;2023-04-02T07:29:13;94153.97;;;11.38;48.06
16793;BME280;8513;42.662;23.350;2023-04-02T07:31:40;94154.50;;;11.33;47.66
16793;BME280;8513;42.662;23.350;2023-04-02T07:34:06;94158.50;;;11.44;47.40
16793;BME280;8513;42.662;23.350;2023-04-02T07:36:32;94165.00;;;11.56;47.05
16793;BME280;8513;42.662;23.350;2023-04-02T07:38:58;94160.28;;;11.66;47.06
16793;BME280;8513;42.662;23.350;2023-04-02T07:41:23;94163.41;;;11.85;45.98
16793;BME280;8513;42.662;23.350;2023-04-02T07:43:50;94172.72;;;11.96;45.36
16793;BME280;8513;42.662;23.350;2023-04-02T07:46:16;94171.78;;;11.88;45.46
16793;BME280;8513;42.662;23.350;2023-04-02T07:48:44;94171.25;;;11.93;44.26
16793;BME280;8513;42.662;23.350;2023-04-02T07:51:19;94151.91;;;12.01;44.16
16793;BME280;8513;42.662;23.350;2023-04-02T07:53:45;94156.47;;;12.22;44.24
16793;BME280;8513;42.662;23.350;2023-04-02T07:56:15;94151.16;;;12.36;44.08
16793;BME280;8513;42.662;23.350;2023-04-02T07:58:40;94150.66;;;12.63;43.54
16793;BME280;8513;42.662;23.350;2023-04-02T08:01:14;94157.88;;;12.54;42.18
16793;BME280;8513;42.662;23.350;2023-04-02T08:03:40;94153.75;;;12.66;41.35
16793;BME280;8513;42.662;23.350;2023-04-02T08:06:06;94158.31;;;12.57;41.67
16793;BME280;8513;42.662;23.350;2023-04-02T08:08:31;94165.94;;;12.67;40.66
16793;BME280;8513;42.662;23.350;2023-04-02T08:10:57;94161.47;;;12.68;40.62
16793;BME280;8513;42.662;23.350;2023-04-02T08:13:22;94169.34;;;12.83;40.55
16793;BME280;8513;42.662;23.350;2023-04-02T08:15:48;94163.47;;;13.02;40.24
16793;BME280;8513;42.662;23.350;2023-04-02T08:18:13;94158.50;;;13.29;39.66
16793;BME280;8513;42.662;23.350;2023-04-02T08:20:39;94157.09;;;13.33;39.42
16793;BME280;8513;42.662;23.350;2023-04-02T08:23:04;94162.00;;;13.36;38.75
16793;BME280;8513;42.662;23.350;2023-04-02T08:25:36;94164.50;;;13.44;37.96
16793;BME280;8513;42.662;23.350;2023-04-02T08:28:01;94166.66;;;13.55;37.26
16793;BME280;8513;42.662;23.350;2023-04-02T08:30:27;94173.06;;;13.46;37.23
16793;BME280;8513;42.662;23.350;2023-04-02T08:32:52;94182.25;;;13.29;38.16
16793;BME280;8513;42.662;23.350;2023-04-02T08:35:18;94172.88;;;13.26;38.26
16793;BME280;8513;42.662;23.350;2023-04-02T08:37:43;94173.00;;;13.39;37.77
16793;BME280;8513;42.662;23.350;2023-04-02T08:40:37;94171.22;;;13.46;37.88
16793;BME280;8513;42.662;23.350;2023-04-02T08:48:32;94171.19;;;13.68;36.35
16793;BME280;8513;42.662;23.350;2023-04-02T08:50:59;94173.41;;;13.64;36.63
16793;BME280;8513;42.662;23.350;2023-04-02T08:53:28;94171.16;;;13.61;37.86
16793;BME280;8513;42.662;23.350;2023-04-02T08:56:18;94168.47;;;13.83;37.42
16793;BME280;8513;42.662;23.350;2023-04-02T08:58:50;94170.16;;;13.90;37.14
16793;BME280;8513;42.662;23.350;2023-04-02T09:01:27;94167.53;;;13.97;36.33
16793;BME280;8513;42.662;23.350;2023-04-02T09:03:57;94168.44;;;14.11;36.42
16793;BME280;8513;42.662;23.350;2023-04-02T09:06:23;94169.53;;;14.23;35.39
16793;BME280;8513;42.662;23.350;2023-04-02T09:08:50;94168.88;;;14.15;36.14
16793;BME280;8513;42.662;23.350;2023-04-02T09:11:19;94166.28;;;14.21;36.17
16793;BME280;8513;42.662;23.350;2023-04-02T09:13:51;94165.53;;;13.99;36.27
16793;BME280;8513;42.662;23.350;2023-04-02T09:16:19;94164.00;;;14.11;35.08
16793;BME280;8513;42.662;23.350;2023-04-02T09:18:48;94167.56;;;14.32;33.97
16793;BME280;8513;42.662;23.350;2023-04-02T09:21:38;94176.28;;;14.32;33.51
16793;BME280;8513;42.662;23.350;2023-04-02T09:24:10;94170.34;;;14.59;33.37
16793;BME280;8513;42.662;23.350;2023-04-02T09:26:36;94172.22;;;14.65;33.64
16793;BME280;8513;42.662;23.350;2023-04-02T09:29:27;94159.81;;;14.72;33.62
16793;BME280;8513;42.662;23.350;2023-04-02T09:34:43;94167.06;;;15.18;33.46
16793;BME280;8513;42.662;23.350;2023-04-02T09:37:17;94165.66;;;15.29;32.97
16793;BME280;8513;42.662;23.350;2023-04-02T09:39:43;94161.22;;;15.29;32.60
16793;BME280;8513;42.662;23.350;2023-04-02T09:45:20;94155.72;;;15.44;32.50
16793;BME280;8513;42.662;23.350;2023-04-02T09:47:46;94150.22;;;15.59;32.18
16793;BME280;8513;42.662;23.350;2023-04-02T09:52:45;94135.31;;;16.11;32.25
16793;BME280;8513;42.662;23.350;2023-04-02T09:57:45;94149.84;;;16.02;32.04
16793;BME280;8513;42.662;23.350;2023-04-02T10:00:20;94147.53;;;16.19;30.77
16793;BME280;8513;42.662;23.350;2023-04-02T10:05:29;94142.50;;;16.04;31.53
16793;BME280;8513;42.662;23.350;2023-04-02T10:08:06;94143.09;;;15.93;30.98
16793;BME280;8513;42.662;23.350;2023-04-02T10:10:42;94136.53;;;16.15;30.66
16793;BME280;8513;42.662;23.350;2023-04-02T10:13:43;94143.84;;;16.26;30.12
16793;BME280;8513;42.662;23.350;2023-04-02T10:18:50;94124.50;;;16.13;30.02
16793;BME280;8513;42.662;23.350;2023-04-02T10:21:32;94126.75;;;16.16;30.40
16793;BME280;8513;42.662;23.350;2023-04-02T10:24:00;94121.22;;;16.24;30.07
16793;BME280;8513;42.662;23.350;2023-04-02T10:35:00;94123.34;;;16.53;31.20
16793;BME280;8513;42.662;23.350;2023-04-02T10:40:07;94127.63;;;15.76;33.05
16793;BME280;8513;42.662;23.350;2023-04-02T10:42:48;94139.63;;;16.05;32.87
16793;BME280;8513;42.662;23.350;2023-04-02T10:48:38;94132.84;;;16.16;33.40
16793;BME280;8513;42.662;23.350;2023-04-02T10:51:30;94117.09;;;16.35;32.76
16793;BME280;8513;42.662;23.350;2023-04-02T10:56:46;94114.09;;;16.18;32.82
16793;BME280;8513;42.662;23.350;2023-04-02T10:59:20;94116.06;;;16.36;32.79
16793;BME280;8513;42.662;23.350;2023-04-02T11:01:48;94109.47;;;16.51;32.29
16793;BME280;8513;42.662;23.350;2023-04-02T11:06:44;94109.38;;;16.85;31.33
16793;BME280;8513;42.662;23.350;2023-04-02T11:09:19;94121.03;;;17.15;31.38
16793;BME280;8513;42.662;23.350;2023-04-02T11:11:48;94106.56;;;17.43;30.57
16793;BME280;8513;42.662;23.350;2023-04-02T11:16:50;94121.81;;;17.23;30.98
16793;BME280;8513;42.662;23.350;2023-04-02T11:24:22;94105.75;;;17.11;30.68
16793;BME280;8513;42.662;23.350;2023-04-02T11:26:49;94112.22;;;17.22;30.82
16793;BME280;8513;42.662;23.350;2023-04-02T11:31:50;94106.59;;;17.36;29.99
16793;BME280;8513;42.662;23.350;2023-04-02T11:37:39;94103.88;;;17.93;29.65
16793;BME280;8513;42.662;23.350;2023-04-02T11:42:42;94097.06;;;17.79;29.62
16793;BME280;8513;42.662;23.350;2023-04-02T11:50:41;94084.78;;;17.78;29.34
16793;BME280;8513;42.662;23.350;2023-04-02T11:55:37;94097.41;;;18.07;29.08
16793;BME280;8513;42.662;23.350;2023-04-02T12:01:01;94084.41;;;17.74;28.72
16793;BME280;8513;42.662;23.350;2023-04-02T12:03:52;94090.66;;;17.61;29.17
16793;BME280;8513;42.662;23.350;2023-04-02T12:09:44;94091.41;;;17.69;29.00
16793;BME280;8513;42.662;23.350;2023-04-02T12:12:28;94089.16;;;17.15;29.84
16793;BME280;8513;42.662;23.350;2023-04-02T12:14:58;94086.31;;;17.42;30.07
16793;BME280;8513;42.662;23.350;2023-04-02T12:22:38;94077.66;;;18.52;27.93
16793;BME280;8513;42.662;23.350;2023-04-02T12:27:46;94076.34;;;18.06;28.41
16793;BME280;8513;42.662;23.350;2023-04-02T12:30:20;94081.88;;;18.23;28.27
16793;BME280;8513;42.662;23.350;2023-04-02T12:32:46;94081.69;;;18.24;28.52
16793;BME280;8513;42.662;23.350;2023-04-02T12:35:33;94077.97;;;18.25;28.37
16793;BME280;8513;42.662;23.350;2023-04-02T12:38:00;94070.44;;;18.41;27.96
16793;BME280;8513;42.662;23.350;2023-04-02T12:40:26;94072.13;;;18.35;27.74
16793;BME280;8513;42.662;23.350;2023-04-02T12:42:52;94079.84;;;18.73;27.01
16793;BME280;8513;42.662;23.350;2023-04-02T12:45:23;94070.69;;;18.88;26.60
16793;BME280;8513;42.662;23.350;2023-04-02T12:47:49;94069.44;;;18.90;26.84
16793;BME280;8513;42.662;23.350;2023-04-02T12:50:15;94071.34;;;19.13;26.50
16793;BME280;8513;42.662;23.350;2023-04-02T12:52:52;94075.97;;;19.60;26.01
16793;BME280;8513;42.662;23.350;2023-04-02T12:55:24;94062.78;;;19.77;25.39
16793;BME280;8513;42.662;23.350;2023-04-02T12:57:57;94056.94;;;20.15;25.73
16793;BME280;8513;42.662;23.350;2023-04-02T13:03:15;94061.69;;;21.06;23.93
16793;BME280;8513;42.662;23.350;2023-04-02T13:05:51;94048.97;;;20.96;23.70
16793;BME280;8513;42.662;23.350;2023-04-02T13:08:31;94048.81;;;20.74;24.27
16793;BME280;8513;42.662;23.350;2023-04-02T13:11:03;94059.50;;;20.74;23.72
16793;BME280;8513;42.662;23.350;2023-04-02T13:13:37;94051.06;;;20.94;23.37
16793;BME280;8513;42.662;23.350;2023-04-02T13:18:35;94042.22;;;21.73;22.97
16793;BME280;8513;42.662;23.350;2023-04-02T13:21:04;94043.88;;;22.74;21.78
16793;BME280;8513;42.662;23.350;2023-04-02T13:23:31;94031.81;;;24.37;20.34
16793;BME280;8513;42.662;23.350;2023-04-02T13:26:08;94039.94;;;26.28;17.81
16793;BME280;8513;42.662;23.350;2023-04-02T13:28:35;94048.84;;;28.41;15.82
16793;BME280;8513;42.662;23.350;2023-04-02T13:31:01;94041.88;;;30.62;13.94
16793;BME280;8513;42.662;23.350;2023-04-02T13:33:26;94047.47;;;32.16;12.45
16793;BME280;8513;42.662;23.350;2023-04-02T13:35:52;94042.06;;;32.25;12.01
16793;BME280;8513;42.662;23.350;2023-04-02T13:38:17;94052.69;;;32.35;11.93
16793;BME280;8513;42.662;23.350;2023-04-02T13:40:42;94049.22;;;34.19;10.55
16793;BME280;8513;42.662;23.350;2023-04-02T13:43:17;94041.31;;;35.71;9.49
16793;BME280;8513;42.662;23.350;2023-04-02T13:45:47;94048.53;;;37.37;8.28
16793;BME280;8513;42.662;23.350;2023-04-02T13:48:14;94043.97;;;36.79;8.45
16793;BME280;8513;42.662;23.350;2023-04-02T13:50:40;94050.72;;;37.19;7.78
16793;BME280;8513;42.662;23.350;2023-04-02T13:53:07;94046.13;;;38.00;7.58
16793;BME280;8513;42.662;23.350;2023-04-02T13:55:39;94046.19;;;34.03;9.92
16793;BME280;8513;42.662;23.350;2023-04-02T13:58:06;94036.97;;;36.12;8.79
16793;BME280;8513;42.662;23.350;2023-04-02T14:00:34;94042.56;;;36.61;8.41
16793;BME280;8513;42.662;23.350;2023-04-02T14:03:19;94041.28;;;38.09;7.26
16793;BME280;8513;42.662;23.350;2023-04-02T14:06:10;94043.25;;;36.70;7.85
16793;BME280;8513;42.662;23.350;2023-04-02T14:17:44;94038.16;;;35.09;8.73
16793;BME280;8513;42.662;23.350;2023-04-02T14:20:44;94040.91;;;34.15;8.86
16793;BME280;8513;42.662;23.350;2023-04-02T14:23:28;94046.19;;;34.20;9.01
16793;BME280;8513;42.662;23.350;2023-04-02T14:31:47;94035.25;;;32.36;10.50
16793;BME280;8513;42.662;23.350;2023-04-02T14:34:20;94030.19;;;35.25;8.99
16793;BME280;8513;42.662;23.350;2023-04-02T14:39:57;94029.56;;;35.91;8.06
16793;BME280;8513;42.662;23.350;2023-04-02T14:47:58;94034.81;;;37.61;7.49
16793;BME280;8513;42.662;23.350;2023-04-02T14:50:32;94033.69;;;37.25;6.93
16793;BME280;8513;42.662;23.350;2023-04-02T14:53:07;94029.09;;;35.68;7.79
16793;BME280;8513;42.662;23.350;2023-04-02T14:55:42;94034.78;;;33.31;9.44
16793;BME280;8513;42.662;23.350;2023-04-02T14:58:19;94037.94;;;30.41;11.46
16793;BME280;8513;42.662;23.350;2023-04-02T15:01:19;94033.88;;;28.78;13.17
16793;BME280;8513;42.662;23.350;2023-04-02T15:04:00;94044.88;;;29.67;11.91
16793;BME280;8513;42.662;23.350;2023-04-02T15:06:33;94035.41;;;28.84;12.50
16793;BME280;8513;42.662;23.350;2023-04-02T15:09:03;94048.03;;;28.17;13.39
16793;BME280;8513;42.662;23.350;2023-04-02T15:11:35;94047.28;;;26.88;14.28
16793;BME280;8513;42.662;23.350;2023-04-02T15:16:39;94050.66;;;25.05;16.00
16793;BME280;8513;42.662;23.350;2023-04-02T15:19:11;94046.69;;;24.50;16.97
16793;BME280;8513;42.662;23.350;2023-04-02T15:30:11;94048.06;;;25.57;15.62
16793;BME280;8513;42.662;23.350;2023-04-02T15:32:39;94043.19;;;25.33;15.88
16793;BME280;8513;42.662;23.350;2023-04-02T15:35:38;94047.25;;;25.56;15.42
16793;BME280;8513;42.662;23.350;2023-04-02T15:38:23;94053.34;;;25.11;15.84
16793;BME280;8513;42.662;23.350;2023-04-02T15:40:55;94054.19;;;24.06;16.69
16793;BME280;8513;42.662;23.350;2023-04-02T15:43:36;94050.34;;;23.00;17.99
16793;BME280;8513;42.662;23.350;2023-04-02T15:49:03;94053.78;;;22.51;18.36
16793;BME280;8513;42.662;23.350;2023-04-02T15:51:41;94049.38;;;21.84;19.44
16793;BME280;8513;42.662;23.350;2023-04-02T15:59:40;94066.34;;;21.27;19.65
16793;BME280;8513;42.662;23.350;2023-04-02T16:10:36;94069.16;;;20.11;20.20
16793;BME280;8513;42.662;23.350;2023-04-02T16:13:15;94067.47;;;20.45;20.09
16793;BME280;8513;42.662;23.350;2023-04-02T16:16:06;94066.75;;;19.86;20.61
16793;BME280;8513;42.662;23.350;2023-04-02T16:21:22;94075.72;;;19.50;21.06
16793;BME280;8513;42.662;23.350;2023-04-02T16:23:48;94070.03;;;19.58;21.12
16793;BME280;8513;42.662;23.350;2023-04-02T16:37:29;94076.38;;;18.91;21.71
16793;BME280;8513;42.662;23.350;2023-04-02T16:43:17;94085.94;;;19.11;21.81
16793;BME280;8513;42.662;23.350;2023-04-02T16:45:59;94084.59;;;18.90;21.89
16793;BME280;8513;42.662;23.350;2023-04-02T16:48:49;94087.56;;;18.82;21.89
16793;BME280;8513;42.662;23.350;2023-04-02T16:51:58;94082.44;;;18.32;22.58
16793;BME280;8513;42.662;23.350;2023-04-02T17:00:19;94094.16;;;18.05;24.19
16793;BME280;8513;42.662;23.350;2023-04-02T17:11:16;94108.47;;;17.29;25.61
16793;BME280;8513;42.662;23.350;2023-04-02T17:13:56;94111.72;;;17.00;26.48
16793;BME280;8513;42.662;23.350;2023-04-02T17:16:43;94111.47;;;17.08;26.04
16793;BME280;8513;42.662;23.350;2023-04-02T17:19:11;94121.53;;;16.99;26.09
16793;BME280;8513;42.662;23.350;2023-04-02T17:21:39;94124.72;;;17.14;26.26
16793;BME280;8513;42.662;23.350;2023-04-02T17:24:46;94128.91;;;16.97;26.23
16793;BME280;8513;42.662;23.350;2023-04-02T17:29:44;94131.47;;;17.10;26.25
16793;BME280;8513;42.662;23.350;2023-04-02T17:32:25;94138.22;;;16.61;26.78
16793;BME280;8513;42.662;23.350;2023-04-02T17:34:51;94145.97;;;16.69;26.64
16793;BME280;8513;42.662;23.350;2023-04-02T17:37:34;94145.16;;;16.62;26.61
16793;BME280;8513;42.662;23.350;2023-04-02T17:47:48;94165.44;;;16.43;26.97
16793;BME280;8513;42.662;23.350;2023-04-02T17:52:58;94173.91;;;15.87;27.69
16793;BME280;8513;42.662;23.350;2023-04-02T17:55:52;94172.06;;;15.94;27.75
16793;BME280;8513;42.662;23.350;2023-04-02T18:04:52;94178.78;;;15.77;28.18